createdAt,value
2023-03-19T00:01:20.410Z,100526.73
2023-03-19T00:04:09.621Z,100523.20
2023-03-19T00:06:56.821Z,100523.08
2023-03-19T00:09:44.794Z,100522.44
2023-03-19T00:12:31.534Z,100512.89
2023-03-19T00:15:18.310Z,100515.72
2023-03-19T00:18:06.521Z,100518.80
2023-03-19T00:20:52.984Z,100513.91
2023-03-19T00:23:39.878Z,100515.05
2023-03-19T00:26:28.441Z,100510.73
2023-03-19T00:29:15.105Z,100505.44
2023-03-19T00:32:02.502Z,100503.45
2023-03-19T00:34:48.980Z,100503.17
2023-03-19T00:37:36.465Z,100497.31
2023-03-19T00:40:23.126Z,100500.17
2023-03-19T00:43:09.914Z,100504.36
2023-03-19T00:45:56.738Z,100502.36
2023-03-19T00:48:43.479Z,100501.17
2023-03-19T00:51:30.626Z,100497.14
2023-03-19T00:54:16.987Z,100494.88
2023-03-19T00:57:03.663Z,100492.65
2023-03-19T00:59:50.325Z,100494.19
2023-03-19T01:02:37.177Z,100493.45
2023-03-19T01:05:23.822Z,100494.36
2023-03-19T01:08:10.655Z,100492.67
2023-03-19T01:10:57.700Z,100492.44
2023-03-19T01:13:44.643Z,100497.34
2023-03-19T01:16:31.512Z,100497.06
2023-03-19T01:19:18.163Z,100497.90
2023-03-19T01:22:05.275Z,100497.77
2023-03-19T01:24:52.351Z,100493.19
2023-03-19T01:27:40.218Z,100497.86
2023-03-19T01:30:26.744Z,100497.27
2023-03-19T01:33:14.701Z,100504.30
2023-03-19T01:36:05.647Z,100504.92
2023-03-19T01:38:52.308Z,100509.27
2023-03-19T01:41:38.741Z,100513.15
2023-03-19T01:44:26.722Z,100509.83
2023-03-19T01:47:27.544Z,100512.38
2023-03-19T01:50:25.924Z,100513.95
2023-03-19T01:53:15.873Z,100508.41
2023-03-19T01:56:16.189Z,100506.89
2023-03-19T01:59:12.998Z,100507.91
2023-03-19T02:02:05.712Z,100504.66
2023-03-19T02:04:58.945Z,100501.98
2023-03-19T02:07:46.122Z,100504.01
2023-03-19T02:10:34.922Z,100505.02
2023-03-19T02:13:23.249Z,100502.77
2023-03-19T02:16:10.704Z,100499.07
2023-03-19T02:18:58.029Z,100499.73
2023-03-19T02:21:44.728Z,100500.93
2023-03-19T02:24:42.353Z,100493.52
2023-03-19T02:27:28.756Z,100490.29
2023-03-19T02:30:27.007Z,100492.28
2023-03-19T02:33:16.132Z,100491.55
2023-03-19T02:36:05.440Z,100493.85
2023-03-19T02:38:53.694Z,100496.36
2023-03-19T02:46:04.317Z,100505.26
2023-03-19T02:48:50.763Z,100509.20
2023-03-19T02:56:01.835Z,100507.48
2023-03-19T02:58:48.249Z,100514.83
2023-03-19T03:05:48.955Z,100511.48
2023-03-19T03:08:36.818Z,100512.14
2023-03-19T03:11:23.984Z,100513.29
2023-03-19T03:14:11.033Z,100512.58
2023-03-19T03:16:58.927Z,100512.58
2023-03-19T03:19:45.812Z,100513.93
2023-03-19T03:22:32.771Z,100508.80
2023-03-19T03:25:19.435Z,100503.41
2023-03-19T03:28:06.319Z,100500.70
2023-03-19T03:31:02.342Z,100500.35
2023-03-19T03:33:49.249Z,100502.00
2023-03-19T03:36:36.930Z,100503.34
2023-03-19T03:39:23.936Z,100504.05
2023-03-19T03:42:10.448Z,100503.06
2023-03-19T03:44:57.347Z,100504.95
2023-03-19T03:47:44.004Z,100500.96
2023-03-19T03:50:30.677Z,100495.94
2023-03-19T03:53:17.186Z,100499.59
2023-03-19T03:56:03.919Z,100493.92
2023-03-19T03:58:51.352Z,100492.05
2023-03-19T04:01:38.061Z,100492.89
2023-03-19T04:04:24.743Z,100491.15
2023-03-19T04:07:11.550Z,100488.66
2023-03-19T04:09:59.303Z,100489.04
2023-03-19T04:12:49.773Z,100492.45
2023-03-19T04:15:36.127Z,100488.86
2023-03-19T04:18:22.771Z,100490.01
2023-03-19T04:21:09.613Z,100493.76
2023-03-19T04:23:56.293Z,100490.70
2023-03-19T04:26:42.999Z,100488.67
2023-03-19T04:29:29.707Z,100487.15
2023-03-19T04:32:16.761Z,100485.80
2023-03-19T04:35:04.360Z,100483.98
2023-03-19T04:37:50.951Z,100482.92
2023-03-19T04:40:37.419Z,100479.45
2023-03-19T04:43:24.708Z,100481.77
2023-03-19T04:46:11.789Z,100486.15
2023-03-19T04:48:59.816Z,100485.34
2023-03-19T04:51:46.587Z,100486.45
2023-03-19T04:54:34.030Z,100488.39
2023-03-19T04:57:21.363Z,100490.06
2023-03-19T05:00:08.920Z,100484.89
2023-03-19T05:02:55.924Z,100482.45
2023-03-19T05:05:43.385Z,100482.52
2023-03-19T05:08:29.956Z,100484.98
2023-03-19T05:11:16.772Z,100486.70
2023-03-19T05:14:22.194Z,100486.42
2023-03-19T05:17:11.259Z,100491.27
2023-03-19T05:19:58.250Z,100490.25
2023-03-19T05:22:44.717Z,100495.52
2023-03-19T05:25:31.357Z,100501.02
2023-03-19T05:28:17.924Z,100504.90
2023-03-19T05:31:05.130Z,100508.46
2023-03-19T05:33:52.534Z,100512.32
2023-03-19T05:36:39.262Z,100513.75
2023-03-19T05:39:26.109Z,100515.93
2023-03-19T05:42:13.467Z,100515.58
2023-03-19T05:45:00.049Z,100518.21
2023-03-19T05:47:49.180Z,100515.16
2023-03-19T05:50:36.477Z,100519.52
2023-03-19T05:53:24.066Z,100514.69
2023-03-19T05:56:11.245Z,100516.73
2023-03-19T05:58:58.510Z,100517.23
2023-03-19T06:01:45.692Z,100516.11
2023-03-19T06:04:33.447Z,100510.23
2023-03-19T06:07:20.673Z,100511.24
2023-03-19T06:10:08.650Z,100508.91
2023-03-19T06:12:56.129Z,100517.23
2023-03-19T06:15:43.915Z,100517.00
2023-03-19T06:18:32.226Z,100515.16
2023-03-19T06:21:19.803Z,100519.64
2023-03-19T06:24:08.086Z,100521.10
2023-03-19T06:26:57.585Z,100525.96
2023-03-19T06:29:44.713Z,100526.77
2023-03-19T06:32:32.782Z,100530.71
2023-03-19T06:35:20.002Z,100531.77
2023-03-19T06:38:07.633Z,100539.02
2023-03-19T06:40:56.157Z,100535.80
2023-03-19T06:43:43.413Z,100534.11
2023-03-19T06:46:30.222Z,100536.87
2023-03-19T06:49:18.319Z,100533.25
2023-03-19T06:52:06.215Z,100534.85
2023-03-19T06:54:53.878Z,100533.66
2023-03-19T06:57:41.713Z,100540.09
2023-03-19T07:00:28.830Z,100537.16
2023-03-19T07:03:16.904Z,100543.23
2023-03-19T07:06:03.730Z,100547.08
2023-03-19T07:08:50.444Z,100541.17
2023-03-19T07:13:40.436Z,100543.99
2023-03-19T07:16:27.670Z,100544.92
2023-03-19T07:19:14.897Z,100540.57
2023-03-19T07:22:02.157Z,100540.63
2023-03-19T07:24:49.428Z,100544.27
2023-03-19T07:27:36.433Z,100540.67
2023-03-19T07:30:24.358Z,100543.14
2023-03-19T07:33:11.948Z,100545.63
2023-03-19T07:37:49.422Z,100548.56
2023-03-19T07:40:40.037Z,100552.71
2023-03-19T07:43:33.188Z,100553.91
2023-03-19T07:46:19.720Z,100556.08
2023-03-19T07:49:11.098Z,100547.49
2023-03-19T07:52:10.458Z,100540.55
2023-03-19T07:56:08.318Z,100539.47
2023-03-19T08:00:11.061Z,100536.64
2023-03-19T08:03:44.421Z,100539.90
2023-03-19T08:06:31.259Z,100541.73
2023-03-19T08:09:18.359Z,100537.90
2023-03-19T08:12:06.734Z,100538.49
2023-03-19T08:14:53.599Z,100539.11
2023-03-19T08:18:08.482Z,100542.56
2023-03-19T08:21:30.069Z,100543.16
2023-03-19T08:25:32.550Z,100539.92
2023-03-19T08:29:28.350Z,100539.52
2023-03-19T08:32:17.733Z,100540.88
2023-03-19T08:35:06.312Z,100541.27
2023-03-19T08:37:54.697Z,100537.69
2023-03-19T08:40:41.535Z,100533.29
2023-03-19T08:43:41.101Z,100531.97
2023-03-19T08:47:37.957Z,100527.65
2023-03-19T08:51:56.126Z,100529.04
2023-03-19T08:55:20.405Z,100527.55
2023-03-19T08:58:51.426Z,100531.30
2023-03-19T09:02:50.324Z,100535.23
2023-03-19T09:06:51.669Z,100533.83
2023-03-19T09:10:46.112Z,100531.94
2023-03-19T09:14:01.711Z,100532.43
2023-03-19T09:18:25.564Z,100530.72
2023-03-19T09:21:41.459Z,100530.04
2023-03-19T09:25:18.637Z,100531.28
2023-03-19T09:28:52.321Z,100532.56
2023-03-19T09:44:03.073Z,100518.09
2023-03-19T09:47:31.416Z,100517.84
2023-03-19T09:51:59.375Z,100514.30
2023-03-19T10:05:54.323Z,100504.21
2023-03-19T10:09:13.721Z,100504.34
2023-03-19T10:13:16.170Z,100503.39
2023-03-19T10:16:40.283Z,100510.74
2023-03-19T10:19:58.433Z,100508.84
2023-03-19T10:34:34.722Z,100505.64
2023-03-19T10:37:38.441Z,100501.70
2023-03-19T10:41:45.673Z,100503.67
2023-03-19T10:55:26.168Z,100504.91
2023-03-19T10:58:41.091Z,100503.77
2023-03-19T11:14:27.642Z,100488.48
2023-03-19T11:28:26.034Z,100476.48
2023-03-19T11:58:54.413Z,100441.30
2023-03-19T12:02:38.023Z,100440.70
2023-03-19T12:07:00.625Z,100437.27
2023-03-19T12:20:54.809Z,100432.23
2023-03-19T12:24:38.648Z,100424.73
2023-03-19T12:38:21.166Z,100416.48
2023-03-19T12:41:12.811Z,100417.73
2023-03-19T12:44:38.806Z,100420.02
2023-03-19T12:47:40.110Z,100417.04
2023-03-19T12:52:59.724Z,100409.44
2023-03-19T12:56:00.919Z,100409.83
2023-03-19T12:58:58.840Z,100411.21
2023-03-19T13:01:54.992Z,100407.48
2023-03-19T13:07:24.731Z,100399.25
2023-03-19T13:11:10.991Z,100398.53
2023-03-19T13:14:38.646Z,100393.73
2023-03-19T13:17:41.295Z,100388.99
2023-03-19T13:20:59.568Z,100390.48
2023-03-19T13:23:53.708Z,100380.19
2023-03-19T13:26:41.478Z,100376.61
2023-03-19T13:29:39.617Z,100377.14
2023-03-19T13:32:39.262Z,100377.66
2023-03-19T13:35:35.206Z,100375.56
2023-03-19T13:39:14.224Z,100376.92
2023-03-19T13:43:30.916Z,100381.86
2023-03-19T13:46:17.849Z,100380.56
2023-03-19T13:49:21.276Z,100376.19
2023-03-19T13:52:11.942Z,100374.93
2023-03-19T13:55:30.294Z,100373.18
2023-03-19T13:59:03.980Z,100375.27
2023-03-19T14:01:51.159Z,100373.48
2023-03-19T14:04:38.645Z,100372.09
2023-03-19T14:07:29.097Z,100369.87
2023-03-19T14:10:27.214Z,100368.52
2023-03-19T14:13:28.669Z,100366.70
2023-03-19T14:16:29.948Z,100367.91
2023-03-19T14:19:21.174Z,100367.26
2023-03-19T14:22:39.095Z,100368.55
2023-03-19T14:25:48.083Z,100369.16
2023-03-19T14:28:45.588Z,100368.98
2023-03-19T14:32:07.053Z,100363.17
2023-03-19T14:34:57.030Z,100358.38
2023-03-19T14:37:49.344Z,100356.55
2023-03-19T14:40:45.108Z,100356.48
2023-03-19T14:44:08.397Z,100354.82
2023-03-19T14:47:33.783Z,100351.53
2023-03-19T14:50:33.911Z,100351.56
2023-03-19T14:53:39.846Z,100356.30
2023-03-19T14:56:32.557Z,100350.41
2023-03-19T14:59:36.970Z,100357.30
2023-03-19T15:02:42.619Z,100357.08
2023-03-19T15:05:36.799Z,100357.79
2023-03-19T15:08:24.016Z,100348.73
2023-03-19T15:11:13.482Z,100343.73
2023-03-19T15:14:03.161Z,100339.55
2023-03-19T15:17:15.578Z,100336.95
2023-03-19T15:20:06.307Z,100335.19
2023-03-19T15:23:13.353Z,100333.79
2023-03-19T15:26:14.540Z,100332.64
2023-03-19T15:29:04.755Z,100333.80
2023-03-19T15:32:04.791Z,100336.34
2023-03-19T15:35:03.611Z,100335.61
2023-03-19T15:38:00.305Z,100329.14
2023-03-19T15:40:52.059Z,100329.17
2023-03-19T15:43:41.600Z,100334.42
2023-03-19T15:46:33.538Z,100333.10
2023-03-19T15:49:33.654Z,100331.16
2023-03-19T15:52:21.203Z,100334.86
2023-03-19T15:55:11.590Z,100336.48
2023-03-19T15:58:08.666Z,100339.71
2023-03-19T16:00:56.447Z,100340.42
2023-03-19T16:03:46.426Z,100347.05
2023-03-19T16:12:42.776Z,100341.69
2023-03-19T16:15:46.175Z,100349.72
2023-03-19T16:18:53.187Z,100349.80
2023-03-19T16:21:43.126Z,100347.64
2023-03-19T16:24:39.584Z,100349.02
2023-03-19T16:27:37.083Z,100355.52
2023-03-19T16:30:27.666Z,100357.05
2023-03-19T16:33:15.110Z,100358.16
2023-03-19T16:36:03.237Z,100358.69
2023-03-19T16:39:23.424Z,100366.91
2023-03-19T16:42:13.117Z,100362.48
2023-03-19T16:45:15.662Z,100360.54
2023-03-19T16:48:07.085Z,100362.23
2023-03-19T16:50:53.555Z,100366.88
2023-03-19T16:53:40.604Z,100372.42
2023-03-19T16:56:31.305Z,100373.10
2023-03-19T17:08:55.880Z,100375.16
2023-03-19T17:11:43.436Z,100376.52
2023-03-19T17:14:31.371Z,100378.80
2023-03-19T17:17:20.659Z,100376.65
2023-03-19T17:20:21.010Z,100378.32
2023-03-19T17:23:14.345Z,100380.09
2023-03-19T17:26:28.128Z,100378.77
2023-03-19T17:29:14.492Z,100378.65
2023-03-19T17:32:05.339Z,100375.27
2023-03-19T17:34:52.253Z,100377.71
2023-03-19T17:37:41.513Z,100382.35
2023-03-19T17:40:35.037Z,100384.06
2023-03-19T17:43:22.253Z,100380.80
2023-03-19T17:46:15.204Z,100378.84
2023-03-19T17:49:04.855Z,100375.05
2023-03-19T17:51:52.072Z,100369.41
2023-03-19T17:54:39.132Z,100369.36
2023-03-19T17:57:27.135Z,100365.73
2023-03-19T18:00:20.765Z,100365.81
2023-03-19T18:03:14.093Z,100362.95
2023-03-19T18:06:05.627Z,100360.64
2023-03-19T18:08:52.550Z,100363.08
2023-03-19T18:11:40.558Z,100364.84
2023-03-19T18:14:27.001Z,100362.17
2023-03-19T18:17:20.881Z,100356.17
2023-03-19T18:20:13.342Z,100352.21
2023-03-19T18:23:06.382Z,100351.69
2023-03-19T18:25:53.203Z,100348.84
2023-03-19T18:28:40.347Z,100350.58
2023-03-19T18:31:31.889Z,100349.56
2023-03-19T18:34:19.670Z,100351.77
2023-03-19T18:37:06.266Z,100355.26
2023-03-19T18:43:06.100Z,100355.38
2023-03-19T18:45:54.325Z,100358.25
2023-03-19T18:48:42.381Z,100360.63
2023-03-19T18:51:29.227Z,100355.30
2023-03-19T18:54:16.051Z,100357.88
2023-03-19T18:57:03.110Z,100359.17
2023-03-19T18:59:49.810Z,100359.09
2023-03-19T19:02:38.343Z,100351.09
2023-03-19T19:05:31.482Z,100353.63
2023-03-19T19:08:20.850Z,100356.39
2023-03-19T19:11:09.070Z,100355.80
2023-03-19T19:14:03.252Z,100356.35
2023-03-19T19:16:51.314Z,100358.02
2023-03-19T19:19:42.926Z,100354.47
2023-03-19T19:22:43.726Z,100358.94
2023-03-19T19:25:30.617Z,100357.92
2023-03-19T19:28:28.390Z,100355.66
2023-03-19T19:31:26.758Z,100355.55
2023-03-19T19:34:15.645Z,100358.95
2023-03-19T19:37:06.026Z,100360.16
2023-03-19T19:39:57.090Z,100363.32
2023-03-19T19:42:48.796Z,100364.30
2023-03-19T19:45:39.972Z,100361.70
2023-03-19T19:48:35.616Z,100356.10
2023-03-19T19:57:42.232Z,100358.52
2023-03-19T20:00:35.817Z,100354.55
2023-03-19T20:03:39.513Z,100353.95
2023-03-19T20:06:28.665Z,100356.27
2023-03-19T20:09:16.862Z,100355.81
2023-03-19T20:12:03.842Z,100356.98
2023-03-19T20:17:54.126Z,100355.00
2023-03-19T20:20:40.781Z,100350.75
2023-03-19T20:23:29.114Z,100352.47
2023-03-19T20:26:19.630Z,100351.51
2023-03-19T20:29:06.092Z,100355.02
2023-03-19T20:31:53.106Z,100355.69
2023-03-19T20:34:40.243Z,100358.40
2023-03-19T20:37:27.513Z,100360.41
2023-03-19T20:40:18.132Z,100359.69
2023-03-19T20:43:07.781Z,100357.89
2023-03-19T20:45:57.032Z,100356.84
2023-03-19T20:48:43.897Z,100355.77
2023-03-19T20:51:31.876Z,100350.98
2023-03-19T20:54:18.799Z,100346.54
2023-03-19T20:57:05.267Z,100347.23
2023-03-19T20:59:52.187Z,100349.33
2023-03-19T21:02:38.945Z,100343.48
2023-03-19T21:05:35.268Z,100345.56
2023-03-19T21:08:48.860Z,100342.16
2023-03-19T21:11:41.997Z,100340.33
2023-03-19T21:14:28.691Z,100342.84
2023-03-19T21:17:15.536Z,100341.91
2023-03-19T21:20:02.165Z,100346.02
2023-03-19T21:22:54.088Z,100345.71
2023-03-19T21:25:42.718Z,100348.85
2023-03-19T21:28:34.996Z,100346.73
2023-03-19T21:31:21.754Z,100349.89
2023-03-19T21:34:13.691Z,100349.83
2023-03-19T21:37:00.743Z,100353.98
2023-03-19T21:39:48.096Z,100350.02
2023-03-19T21:42:36.712Z,100349.61
2023-03-19T21:45:29.116Z,100346.23
2023-03-19T21:48:25.087Z,100341.13
2023-03-19T21:51:16.732Z,100341.98
2023-03-19T21:54:03.078Z,100336.92
2023-03-19T21:56:49.877Z,100336.88
2023-03-19T21:59:36.613Z,100335.41
2023-03-19T22:02:26.164Z,100331.85
2023-03-19T22:05:31.212Z,100330.81
2023-03-19T22:08:20.508Z,100327.42
2023-03-19T22:11:18.563Z,100323.38
2023-03-19T22:14:18.000Z,100322.27
2023-03-19T22:17:05.786Z,100329.64
2023-03-19T22:19:52.737Z,100328.33
2023-03-19T22:22:40.281Z,100325.73
2023-03-19T22:25:31.551Z,100321.59
2023-03-19T22:28:31.606Z,100324.90
2023-03-19T22:31:18.248Z,100322.23
2023-03-19T22:34:04.678Z,100323.90
2023-03-19T22:36:51.612Z,100323.63
2023-03-19T22:39:37.815Z,100315.98
2023-03-19T22:42:26.360Z,100315.92
2023-03-19T22:45:32.150Z,100316.58
2023-03-19T22:48:20.140Z,100317.88
2023-03-19T22:51:08.136Z,100320.29
2023-03-19T22:53:55.541Z,100317.23
2023-03-19T22:56:42.091Z,100316.56
2023-03-19T22:59:28.586Z,100317.11
2023-03-19T23:02:16.467Z,100315.27
2023-03-19T23:05:32.515Z,100315.98
2023-03-19T23:08:19.167Z,100312.40
2023-03-19T23:11:05.933Z,100314.20
2023-03-19T23:13:53.253Z,100313.64
2023-03-19T23:16:45.812Z,100312.13
2023-03-19T23:19:38.467Z,100313.88
2023-03-19T23:22:25.108Z,100311.67
2023-03-19T23:25:26.255Z,100312.74
2023-03-19T23:28:22.647Z,100309.95
2023-03-19T23:31:10.362Z,100310.96
2023-03-19T23:33:56.971Z,100308.00
2023-03-19T23:36:44.024Z,100304.63
2023-03-19T23:39:30.529Z,100298.81
2023-03-19T23:42:27.754Z,100294.45
2023-03-19T23:45:38.031Z,100293.70
2023-03-19T23:48:28.418Z,100291.05
2023-03-19T23:51:17.232Z,100290.44
2023-03-19T23:54:03.884Z,100286.91
2023-03-19T23:56:52.172Z,100290.47
2023-03-19T23:59:41.817Z,100289.61
